Time;durP1;ratioP1;P1;durP2;ratioP2;P2;SDS_P1;SDS_P2;PMS_P1;PMS_P2;Temp;Humidity;BMP_temperature;BMP_pressure;BME280_temperature;BME280_humidity;BME280_pressure;Samples;Min_cycle;Max_cycle;Signal;HPM_P1;HPM_P2
2021/07/22 00:01:23;;;;;;;17.17;8.73;;;;;;;17.45;71.30;102477.47;5072384;28;20028;-64
2021/07/22 00:03:48;;;;;;;18.17;9.98;;;;;;;17.45;71.73;102477.47;5072911;28;20043;-64
2021/07/22 00:06:13;;;;;;;18.60;9.75;;;;;;;17.43;71.75;102474.03;5072942;28;20045;-63
2021/07/22 00:08:38;;;;;;;18.55;9.73;;;;;;;17.42;72.14;102477.63;5058711;28;20029;-64
2021/07/22 00:11:07;;;;;;;16.05;8.88;;;;;;;17.40;71.68;102473.31;5058749;28;20029;-64
2021/07/22 00:13:32;;;;;;;15.50;8.85;;;;;;;17.35;71.98;102473.50;5073171;28;20017;-65
2021/07/22 00:15:58;;;;;;;16.52;9.23;;;;;;;17.33;72.28;102472.72;5072751;28;20484;-64
2021/07/22 00:18:23;;;;;;;16.70;9.07;;;;;;;17.31;72.17;102471.91;5071342;28;20040;-65
2021/07/22 00:20:49;;;;;;;18.40;10.05;;;;;;;17.23;72.77;102466.06;5072200;28;20021;-63
2021/07/22 00:23:14;;;;;;;20.80;10.25;;;;;;;17.18;73.37;102467.13;5072391;28;20162;-64
2021/07/22 00:25:41;;;;;;;17.13;10.00;;;;;;;17.15;73.69;102464.63;5072732;28;20024;-64
2021/07/22 00:28:06;;;;;;;18.50;9.95;;;;;;;17.13;73.49;102468.31;5072494;28;20137;-63
2021/07/22 00:30:32;;;;;;;19.60;10.55;;;;;;;17.09;73.74;102467.56;5053875;28;20117;-65
2021/07/22 00:32:57;;;;;;;19.02;10.05;;;;;;;17.06;74.41;102470.41;5068218;28;20406;-65
2021/07/22 00:35:23;;;;;;;19.65;10.23;;;;;;;17.08;74.63;102478.34;5072702;28;20025;-65
2021/07/22 00:37:49;;;;;;;17.85;10.32;;;;;;;17.07;74.53;102466.75;5072300;28;20059;-65
2021/07/22 00:40:14;;;;;;;16.85;9.52;;;;;;;17.04;74.74;102461.56;5070700;28;20032;-64
2021/07/22 00:43:02;;;;;;;20.75;10.05;;;;;;;17.02;74.65;102463.44;5072175;28;20040;-64
2021/07/22 00:45:31;;;;;;;16.27;9.48;;;;;;;16.96;74.76;102461.06;5072384;28;20421;-64
2021/07/22 00:47:59;;;;;;;23.02;10.68;;;;;;;16.94;75.35;102450.41;5072617;28;20028;-65
2021/07/22 00:50:25;;;;;;;21.60;10.48;;;;;;;16.93;75.55;102453.16;5064941;28;20059;-65
2021/07/22 00:52:50;;;;;;;21.23;10.98;;;;;;;16.88;75.73;102453.34;5058833;28;20025;-64
2021/07/22 00:55:18;;;;;;;22.27;10.90;;;;;;;16.81;75.51;102455.44;5072395;28;20028;-64
2021/07/22 00:57:43;;;;;;;21.70;10.57;;;;;;;16.77;76.06;102456.50;5072525;28;20024;-64
2021/07/22 01:00:10;;;;;;;21.98;11.13;;;;;;;16.74;76.50;102456.66;5071681;28;20116;-64
2021/07/22 01:02:35;;;;;;;18.83;10.07;;;;;;;16.74;76.35;102455.78;5052666;28;20059;-65
2021/07/22 01:05:00;;;;;;;22.60;11.02;;;;;;;16.76;77.19;102456.59;5071411;28;20029;-65
2021/07/22 01:07:26;;;;;;;19.75;11.32;;;;;;;16.76;76.96;102454.75;5072182;28;20028;-65
2021/07/22 01:09:51;;;;;;;20.85;11.48;;;;;;;16.77;76.19;102456.50;5072164;28;20024;-64
2021/07/22 01:12:16;;;;;;;24.27;11.93;;;;;;;16.77;76.84;102464.53;5070798;28;20085;-64
2021/07/22 01:14:43;;;;;;;21.55;11.20;;;;;;;16.79;76.61;102453.75;5071791;28;20171;-64
2021/07/22 01:17:17;;;;;;;21.25;11.13;;;;;;;16.76;76.65;102451.22;5072179;28;20021;-63
2021/07/22 01:19:43;;;;;;;21.85;11.70;;;;;;;16.73;77.06;102449.56;5072389;28;20104;-64
2021/07/22 01:22:09;;;;;;;21.77;11.80;;;;;;;16.70;77.32;102450.56;5065742;28;20068;-63
2021/07/22 01:24:34;;;;;;;21.88;11.65;;;;;;;16.68;77.02;102447.09;5061463;28;20076;-65
2021/07/22 01:27:00;;;;;;;19.67;11.23;;;;;;;16.71;76.84;102454.09;5072151;28;20480;-63
2021/07/22 01:29:25;;;;;;;22.75;13.10;;;;;;;16.68;77.34;102449.75;5072098;28;20041;-63
2021/07/22 01:31:50;;;;;;;23.55;12.40;;;;;;;16.67;77.21;102448.03;5072123;28;20029;-62
2021/07/22 01:34:15;;;;;;;25.05;12.23;;;;;;;16.64;77.37;102445.50;5070227;28;20028;-62
2021/07/22 01:36:41;;;;;;;24.33;11.73;;;;;;;16.61;77.91;102442.09;5071995;28;20051;-62
2021/07/22 01:39:06;;;;;;;20.60;11.98;;;;;;;16.58;77.64;102450.25;5072032;28;20123;-63
2021/07/22 01:41:33;;;;;;;21.33;12.98;;;;;;;16.53;78.49;102446.00;5071835;28;20047;-61
2021/07/22 01:43:58;;;;;;;22.10;12.43;;;;;;;16.54;78.51;102453.06;5062278;28;20021;-62
2021/07/22 01:46:24;;;;;;;25.38;12.45;;;;;;;16.54;78.21;102445.03;5071390;28;20029;-61
2021/07/22 01:48:50;;;;;;;21.20;12.55;;;;;;;16.57;78.17;102451.19;5072007;28;20053;-63
2021/07/22 01:51:15;;;;;;;23.13;13.18;;;;;;;16.52;78.58;102446.91;5072054;28;20024;-62
2021/07/22 01:53:40;;;;;;;29.02;14.20;;;;;;;16.49;79.50;102443.50;5070213;28;20021;-63
2021/07/22 01:56:06;;;;;;;22.77;12.90;;;;;;;16.51;78.75;102438.97;5071328;28;20040;-62
2021/07/22 01:58:31;;;;;;;23.27;13.05;;;;;;;16.49;78.92;102451.53;5074396;28;20484;-63
2021/07/22 02:00:56;;;;;;;31.33;14.05;;;;;;;16.48;78.86;102453.34;5075699;28;20028;-62
2021/07/22 02:03:22;;;;;;;25.70;14.98;;;;;;;16.47;79.24;102443.59;5075398;28;20096;-62
2021/07/22 02:05:47;;;;;;;25.70;12.70;;;;;;;16.44;78.78;102441.03;5063992;28;20070;-62
2021/07/22 02:08:12;;;;;;;30.73;14.90;;;;;;;16.43;79.80;102441.97;5075282;28;20054;-62
2021/07/22 02:10:37;;;;;;;25.48;14.10;;;;;;;16.39;79.75;102445.72;5075023;28;20040;-61
2021/07/22 02:13:03;;;;;;;30.52;16.33;;;;;;;16.37;79.66;102443.09;5075266;28;20441;-63
2021/07/22 02:15:28;;;;;;;29.25;15.10;;;;;;;16.37;80.27;102443.09;5073835;28;20032;-62
2021/07/22 02:17:53;;;;;;;22.00;12.25;;;;;;;16.38;79.94;102438.63;5074970;28;20383;-62
2021/07/22 02:20:19;;;;;;;28.58;15.65;;;;;;;16.36;80.23;102451.19;5075133;28;20067;-63
2021/07/22 02:22:44;;;;;;;26.60;14.32;;;;;;;16.34;80.28;102448.59;5075006;28;20102;-62
2021/07/22 02:25:10;;;;;;;25.98;14.88;;;;;;;16.33;80.17;102443.28;5073741;28;20040;-62
2021/07/22 02:27:35;;;;;;;27.08;15.00;;;;;;;16.26;80.57;102444.53;5068956;28;20032;-62
2021/07/22 02:30:03;;;;;;;30.15;15.43;;;;;;;16.22;81.31;102439.28;5074624;28;20103;-62
2021/07/22 02:32:28;;;;;;;27.58;15.13;;;;;;;16.24;81.10;102451.72;5074840;28;20074;-62
2021/07/22 02:34:54;;;;;;;29.98;16.35;;;;;;;16.22;81.19;102439.28;5074905;28;20472;-62
2021/07/22 02:37:19;;;;;;;29.95;15.63;;;;;;;16.20;80.94;102440.28;5070965;28;20033;-62
2021/07/22 02:39:44;;;;;;;30.23;17.23;;;;;;;16.20;80.92;102448.31;5074420;28;20036;-62
2021/07/22 02:42:10;;;;;;;38.67;18.02;;;;;;;16.21;81.64;102442.03;5074662;28;20017;-62
2021/07/22 02:44:39;;;;;;;31.08;17.60;;;;;;;16.19;81.40;102441.25;5074604;28;20033;-62
2021/07/22 02:47:08;;;;;;;36.67;18.40;;;;;;;16.16;81.62;102450.28;5072544;28;20472;-61
2021/07/22 02:49:33;;;;;;;32.28;17.95;;;;;;;16.17;81.29;102449.31;5074866;28;20128;-62
2021/07/22 02:51:59;;;;;;;32.80;17.80;;;;;;;16.13;81.45;102450.38;5074472;28;20063;-62
2021/07/22 02:54:24;;;;;;;35.97;18.83;;;;;;;16.13;81.60;102463.75;5074345;28;20468;-62
2021/07/22 02:56:49;;;;;;;32.40;18.17;;;;;;;16.11;81.82;102460.25;5070829;28;20115;-61
2021/07/22 02:59:14;;;;;;;34.05;17.65;;;;;;;16.08;81.34;102457.72;5073692;28;20388;-62
2021/07/22 03:01:40;;;;;;;32.80;17.20;;;;;;;16.07;81.60;102461.31;5074910;28;20111;-61
2021/07/22 03:04:05;;;;;;;37.00;18.23;;;;;;;16.05;81.22;102456.06;5074204;28;20036;-61
2021/07/22 03:06:31;;;;;;;34.65;17.80;;;;;;;16.02;81.85;102460.66;5074206;28;20155;-62
2021/07/22 03:08:56;;;;;;;37.40;19.42;;;;;;;16.00;82.19;102458.06;5071848;28;20070;-62
2021/07/22 03:11:21;;;;;;;35.97;18.85;;;;;;;15.98;81.57;102457.22;5073746;28;20388;-62
2021/07/22 03:13:46;;;;;;;39.13;18.35;;;;;;;15.94;81.39;102452.09;5074251;28;20036;-62
2021/07/22 03:16:12;;;;;;;33.55;18.27;;;;;;;15.94;81.80;102454.78;5074123;28;20495;-62
2021/07/22 03:18:37;;;;;;;36.67;19.35;;;;;;;15.90;81.60;102454.03;5073583;28;20020;-62
2021/07/22 03:21:04;;;;;;;37.78;19.25;;;;;;;15.88;81.88;102453.22;5054630;28;20437;-62
2021/07/22 03:23:30;;;;;;;34.58;19.38;;;;;;;15.83;82.18;102450.75;5053849;28;20056;-61
2021/07/22 03:25:55;;;;;;;36.00;20.10;;;;;;;15.80;81.97;102453.50;5053771;28;20100;-62
2021/07/22 03:28:20;;;;;;;39.22;19.90;;;;;;;15.78;81.96;102447.38;5053784;28;20029;-62
2021/07/22 03:30:46;;;;;;;33.60;18.60;;;;;;;15.78;82.07;102447.38;5069802;28;20468;-62
2021/07/22 03:33:12;;;;;;;31.40;18.50;;;;;;;15.78;81.94;102450.03;5073636;28;20025;-62
2021/07/22 03:35:38;;;;;;;33.70;18.77;;;;;;;15.76;81.55;102457.22;5073807;28;20412;-62
2021/07/22 03:38:03;;;;;;;35.78;18.75;;;;;;;15.77;81.43;102453.63;5073674;28;20016;-62
2021/07/22 03:40:29;;;;;;;31.85;16.38;;;;;;;15.75;80.76;102452.81;5066189;28;20033;-63
2021/07/22 03:42:54;;;;;;;30.65;17.42;;;;;;;15.73;80.84;102447.53;5053206;28;20024;-63
2021/07/22 03:45:19;;;;;;;31.42;16.45;;;;;;;15.75;81.01;102447.47;5053627;28;20041;-63
2021/07/22 03:47:45;;;;;;;32.78;16.58;;;;;;;15.75;80.64;102454.63;5053566;28;20116;-63
2021/07/22 03:50:10;;;;;;;31.35;17.25;;;;;;;15.69;80.63;102451.28;5060123;28;20044;-63
2021/07/22 03:52:35;;;;;;;26.55;15.25;;;;;;;15.67;80.68;102450.47;5071704;28;20036;-62
2021/07/22 03:55:01;;;;;;;25.38;15.35;;;;;;;15.66;80.96;102448.72;5073281;28;20415;-61
2021/07/22 03:57:26;;;;;;;27.48;15.38;;;;;;;15.63;80.99;102450.66;5072835;28;20036;-63
2021/07/22 03:59:51;;;;;;;26.98;14.35;;;;;;;15.61;80.91;102449.84;5073181;28;20475;-62
2021/07/22 04:02:17;;;;;;;27.65;14.23;;;;;;;15.61;80.60;102452.50;5062586;28;20094;-62
2021/07/22 04:04:42;;;;;;;25.70;14.80;;;;;;;15.59;80.68;102454.38;5052939;28;20039;-63
2021/07/22 04:07:07;;;;;;;27.80;15.50;;;;;;;15.54;81.13;102454.56;5052802;28;20025;-63
2021/07/22 04:09:34;;;;;;;29.92;15.55;;;;;;;15.51;80.87;102452.00;5053036;28;20104;-63
2021/07/22 04:12:00;;;;;;;25.08;14.43;;;;;;;15.50;81.12;102448.47;5062076;28;20544;-63
2021/07/22 04:14:25;;;;;;;27.70;15.30;;;;;;;15.48;80.89;102447.66;5072090;28;20043;-63
2021/07/22 04:16:50;;;;;;;26.80;14.90;;;;;;;15.52;80.98;102448.41;5072852;28;20074;-63
2021/07/22 04:19:16;;;;;;;27.98;15.38;;;;;;;15.60;81.21;102458.78;5073077;28;20046;-63
2021/07/22 04:21:41;;;;;;;25.73;15.23;;;;;;;15.61;80.85;102452.50;5072215;28;20025;-64
2021/07/22 04:24:06;;;;;;;28.92;16.08;;;;;;;15.63;81.07;102458.69;5068806;28;20487;-63
2021/07/22 04:26:31;;;;;;;23.83;13.73;;;;;;;15.65;80.92;102440.78;5072740;28;20032;-63
2021/07/22 04:28:57;;;;;;;26.20;14.88;;;;;;;15.69;79.83;102456.63;5072276;28;20108;-63
2021/07/22 04:31:22;;;;;;;27.17;14.07;;;;;;;15.76;80.07;102448.38;5069544;28;20484;-63
2021/07/22 04:33:48;;;;;;;23.95;13.52;;;;;;;15.83;79.74;102461.44;5070999;28;20461;-63
2021/07/22 04:36:13;;;;;;;24.88;14.00;;;;;;;15.85;79.63;102461.38;5072634;28;20024;-63
2021/07/22 04:38:39;;;;;;;18.05;11.70;;;;;;;15.91;79.22;102461.13;5072350;28;20377;-63
2021/07/22 04:41:04;;;;;;;19.90;11.57;;;;;;;15.97;78.87;102460.88;5072480;28;20510;-63
2021/07/22 04:43:30;;;;;;;20.35;12.43;;;;;;;16.05;79.11;102464.06;5070566;28;20020;-63
2021/07/22 04:45:55;;;;;;;18.90;11.35;;;;;;;16.10;77.59;102469.22;5071943;28;20033;-63
2021/07/22 04:48:20;;;;;;;19.52;11.13;;;;;;;16.14;77.40;102464.59;5072040;28;20021;-64
2021/07/22 04:50:46;;;;;;;22.67;12.02;;;;;;;16.21;77.64;102468.75;5072518;28;20032;-65
2021/07/22 04:53:11;;;;;;;19.50;10.95;;;;;;;16.28;76.96;102474.72;5064080;28;20032;-64
2021/07/22 04:55:36;;;;;;;17.40;10.70;;;;;;;16.32;76.84;102471.00;5052173;28;20063;-63
2021/07/22 04:58:02;;;;;;;18.10;11.27;;;;;;;16.42;77.17;102466.09;5056837;28;20074;-63
2021/07/22 05:00:28;;;;;;;18.88;10.77;;;;;;;16.54;76.36;102463.75;5071867;28;20112;-63
2021/07/22 05:02:59;;;;;;;18.45;10.70;;;;;;;16.57;76.12;102459.22;5070937;28;20118;-62
2021/07/22 05:05:25;;;;;;;;;;;;;;;16.58;75.93;102466.31;5052501;28;20033;-64
2021/07/22 05:07:51;;;;;;;18.55;10.32;;;;;;;16.61;75.97;102476.84;5051940;28;19912;-63
2021/07/22 05:10:16;;;;;;;17.42;9.82;;;;;;;16.69;75.46;102475.56;5069964;28;20130;-64
2021/07/22 05:12:41;;;;;;;22.95;10.80;;;;;;;16.68;75.41;102465.81;5072194;28;20025;-63
2021/07/22 05:15:07;;;;;;;17.60;9.75;;;;;;;16.73;75.12;102462.94;5070833;28;20024;-64
2021/07/22 05:17:35;;;;;;;18.40;10.00;;;;;;;16.75;75.04;102461.03;5072280;28;20381;-63
2021/07/22 05:20:01;;;;;;;18.05;9.88;;;;;;;16.71;75.06;102455.00;5071484;28;20017;-63
2021/07/22 05:22:26;;;;;;;17.15;9.60;;;;;;;16.78;74.88;102460.94;5071784;28;20032;-63
2021/07/22 05:24:51;;;;;;;15.38;9.15;;;;;;;16.79;74.52;102468.03;5070065;28;20044;-64
2021/07/22 05:27:16;;;;;;;17.83;9.75;;;;;;;16.82;74.47;102467.00;5070455;28;20108;-64
2021/07/22 05:29:42;;;;;;;14.57;9.05;;;;;;;16.95;74.21;102473.56;5059967;28;20047;-63
2021/07/22 05:32:08;;;;;;;16.65;9.57;;;;;;;16.96;74.00;102475.31;5071843;28;20100;-63
2021/07/22 05:34:33;;;;;;;14.75;9.15;;;;;;;16.94;73.67;102469.13;5075733;28;20384;-62
2021/07/22 05:36:58;;;;;;;18.27;9.70;;;;;;;16.94;73.58;102473.63;5075884;28;20017;-64
2021/07/22 05:39:23;;;;;;;17.88;9.48;;;;;;;16.89;73.85;102468.44;5075670;28;20048;-64
2021/07/22 05:41:49;;;;;;;15.15;9.52;;;;;;;16.82;74.03;102472.38;5069794;28;20146;-64
2021/07/22 05:44:14;;;;;;;17.95;8.80;;;;;;;16.84;73.61;102462.44;5066895;28;20492;-64
2021/07/22 05:46:39;;;;;;;16.65;10.32;;;;;;;16.92;73.73;102465.69;5070338;28;20021;-64
2021/07/22 05:49:06;;;;;;;14.75;9.30;;;;;;;16.96;73.87;102466.41;5075456;28;20409;-63
2021/07/22 05:51:32;;;;;;;17.23;9.40;;;;;;;17.09;73.70;102466.72;5072342;28;20530;-62
2021/07/22 05:53:58;;;;;;;15.52;8.85;;;;;;;17.13;73.21;102474.50;5075744;28;20021;-64
2021/07/22 05:56:24;;;;;;;15.35;8.73;;;;;;;17.19;72.91;102471.56;5063431;28;20024;-59
2021/07/22 05:58:50;;;;;;;12.38;8.18;;;;;;;17.21;72.26;102474.16;5055891;28;20087;-63
2021/07/22 06:01:18;;;;;;;15.00;9.40;;;;;;;17.19;72.49;102476.91;5063720;28;20025;-60
2021/07/22 06:03:43;;;;;;;13.95;7.85;;;;;;;17.27;72.99;102481.06;5068000;28;20068;-63
2021/07/22 06:06:08;;;;;;;14.82;8.73;;;;;;;17.25;72.06;102474.88;5074890;28;20055;-64
2021/07/22 06:08:34;;;;;;;13.32;8.32;;;;;;;17.30;72.04;102481.78;5075301;28;20052;-65
2021/07/22 06:11:03;;;;;;;14.20;8.63;;;;;;;17.34;71.67;102475.31;5074354;28;20024;-63
2021/07/22 06:13:28;;;;;;;18.67;9.05;;;;;;;17.43;71.79;102483.84;5066937;28;20031;-62
2021/07/22 06:15:54;;;;;;;14.77;7.93;;;;;;;17.59;71.05;102475.97;5065556;28;20104;-62
2021/07/22 06:18:19;;;;;;;13.80;8.27;;;;;;;17.70;71.16;102479.00;5073413;28;20083;-65
2021/07/22 06:20:44;;;;;;;12.95;8.30;;;;;;;17.77;70.56;102476.88;5073023;28;20044;-65
2021/07/22 06:23:10;;;;;;;14.15;8.45;;;;;;;17.83;68.96;102476.56;5067110;28;20042;-63
2021/07/22 06:25:35;;;;;;;15.75;8.38;;;;;;;17.77;69.40;102475.03;5057170;28;20123;-64
2021/07/22 06:28:00;;;;;;;12.52;8.32;;;;;;;17.77;68.95;102474.19;5061060;28;20025;-63
2021/07/22 06:30:25;;;;;;;13.95;7.47;;;;;;;17.87;68.65;102474.63;5057002;28;20087;-62
2021/07/22 06:32:51;;;;;;;14.38;8.52;;;;;;;17.98;67.88;102480.31;5054614;28;20067;-63
2021/07/22 06:35:16;;;;;;;13.43;7.50;;;;;;;18.05;67.64;102471.03;5066001;28;20028;-62
2021/07/22 06:37:46;;;;;;;16.73;7.90;;;;;;;18.17;67.88;102469.53;5062474;28;20484;-63
2021/07/22 06:40:13;;;;;;;12.07;7.40;;;;;;;18.43;67.13;102473.56;5073514;28;20478;-62
2021/07/22 06:42:38;;;;;;;12.52;7.82;;;;;;;18.50;66.60;102482.16;5074642;28;20020;-63
2021/07/22 06:45:04;;;;;;;13.93;7.47;;;;;;;18.64;66.76;102479.63;5065691;28;20115;-63
2021/07/22 06:47:29;;;;;;;12.40;7.10;;;;;;;18.92;65.43;102479.97;5068798;28;20029;-63
2021/07/22 06:49:54;;;;;;;14.60;7.40;;;;;;;19.11;64.75;102485.22;5071485;28;20036;-62
2021/07/22 06:52:20;;;;;;;13.93;7.95;;;;;;;19.40;64.71;102480.91;5073089;28;20052;-65
2021/07/22 06:54:45;;;;;;;15.35;8.30;;;;;;;19.37;64.49;102475.69;5073933;28;20522;-65
2021/07/22 06:57:10;;;;;;;11.70;7.40;;;;;;;19.29;65.09;102483.34;5068237;28;20051;-65
2021/07/22 06:59:36;;;;;;;13.00;7.60;;;;;;;19.24;64.12;102483.56;5072753;28;20032;-65
2021/07/22 07:02:01;;;;;;;17.15;6.93;;;;;;;19.35;63.97;102474.94;5072191;28;20555;-65
2021/07/22 07:04:26;;;;;;;11.90;7.63;;;;;;;19.35;63.54;102476.72;5073360;28;20039;-64
2021/07/22 07:06:51;;;;;;;9.18;6.18;;;;;;;19.52;63.59;102482.03;5071635;28;20024;-63
2021/07/22 07:09:17;;;;;;;11.00;6.80;;;;;;;19.62;63.03;102479.69;5070738;28;20025;-65
2021/07/22 07:11:42;;;;;;;12.05;7.20;;;;;;;19.64;62.74;102481.34;5072643;28;20496;-65
2021/07/22 07:14:07;;;;;;;12.32;7.25;;;;;;;19.66;62.94;102481.25;5073807;28;20032;-64
2021/07/22 07:16:33;;;;;;;11.13;7.60;;;;;;;19.47;63.48;102482.28;5071873;28;20027;-65
2021/07/22 07:18:58;;;;;;;13.98;7.70;;;;;;;19.30;63.31;102483.25;5065352;28;20115;-65
2021/07/22 07:21:23;;;;;;;13.80;7.57;;;;;;;19.26;63.70;102481.69;5059640;28;20103;-62
2021/07/22 07:23:49;;;;;;;12.98;7.28;;;;;;;19.11;64.44;102482.53;5066981;28;20086;-65
2021/07/22 07:26:15;;;;;;;15.50;7.45;;;;;;;19.24;64.78;102478.19;5069051;28;20104;-65
2021/07/22 07:28:40;;;;;;;15.20;7.72;;;;;;;19.27;64.47;102482.53;5070990;28;20020;-63
2021/07/22 07:31:05;;;;;;;12.63;7.40;;;;;;;19.38;64.46;102481.97;5073447;28;20020;-64
2021/07/22 07:33:31;;;;;;;11.82;7.38;;;;;;;19.43;64.14;102479.88;5071869;28;20083;-65
2021/07/22 07:35:56;;;;;;;13.38;7.53;;;;;;;19.39;64.08;102481.88;5072923;28;20060;-63
2021/07/22 07:38:22;;;;;;;10.90;7.28;;;;;;;19.63;63.02;102486.81;5073249;28;20494;-65
2021/07/22 07:40:47;;;;;;;13.43;7.72;;;;;;;19.71;63.17;102483.69;5073526;28;20043;-65
2021/07/22 09:16:36;;;;;;;11.75;6.88;;;;;;;24.09;48.19;102471.75;5089072;27;20747;-62
2021/07/22 09:19:02;;;;;;;10.73;6.07;;;;;;;24.34;46.73;102476.13;5083376;28;20300;-62
2021/07/22 09:21:27;;;;;;;8.43;6.32;;;;;;;24.55;45.68;102475.41;5089121;28;20052;-62
2021/07/22 09:24:01;;;;;;;10.60;5.78;;;;;;;24.96;44.26;102475.84;5089540;28;20461;-62
2021/07/22 09:26:32;;;;;;;7.95;5.70;;;;;;;24.19;46.90;102482.72;5089407;28;20054;-62
2021/07/22 09:29:03;;;;;;;9.85;5.70;;;;;;;23.91;48.14;102481.28;5089803;28;20020;-62
2021/07/22 09:31:29;;;;;;;10.32;6.50;;;;;;;24.18;47.02;102486.41;5088882;28;20492;-63
2021/07/22 09:33:54;;;;;;;11.02;5.68;;;;;;;25.28;44.97;102480.50;5089296;28;20025;-62
2021/07/22 09:36:19;;;;;;;9.85;6.35;;;;;;;25.13;44.74;102485.31;5089313;28;20028;-63
2021/07/22 09:38:45;;;;;;;8.63;5.67;;;;;;;25.81;44.35;102474.34;5074258;28;20061;-63
2021/07/22 09:41:21;;;;;;;9.27;6.15;;;;;;;26.30;41.38;102485.63;5081061;28;20028;-62
2021/07/22 09:43:47;;;;;;;13.00;6.28;;;;;;;25.63;42.65;102479.47;5075024;28;20064;-63
2021/07/22 09:46:14;;;;;;;13.55;6.85;;;;;;;25.50;42.49;102480.50;5068633;28;20112;-62
2021/07/22 09:49:09;;;;;;;8.85;5.75;;;;;;;26.49;41.27;102493.03;5087192;28;20036;-61
2021/07/22 09:51:35;;;;;;;11.80;6.38;;;;;;;26.60;40.92;102484.81;5088547;28;20523;-62
2021/07/22 09:54:08;;;;;;;9.30;6.07;;;;;;;25.98;41.46;102492.75;5101109;28;20428;-63
2021/07/22 09:56:40;;;;;;;9.60;6.70;;;;;;;24.65;45.25;102483.72;5089149;28;20020;-63
2021/07/22 09:59:08;;;;;;;9.02;6.35;;;;;;;24.68;45.50;102497.91;5088759;28;20016;-63
2021/07/22 10:01:42;;;;;;;10.35;6.57;;;;;;;25.22;44.29;102481.88;5088897;28;20028;-63
2021/07/22 10:04:09;;;;;;;12.73;6.25;;;;;;;25.54;42.70;102494.66;5088707;28;20475;-62
2021/07/22 10:06:35;;;;;;;10.57;6.82;;;;;;;24.47;44.41;102486.00;5088606;28;20110;-64
2021/07/22 10:09:03;;;;;;;9.77;6.28;;;;;;;24.28;45.44;102475.75;5086165;28;20040;-62
2021/07/22 10:11:29;;;;;;;10.48;6.25;;;;;;;25.39;42.85;102476.97;5087039;28;20428;-62
2021/07/22 10:13:55;;;;;;;11.57;6.50;;;;;;;25.73;42.04;102482.25;5084535;28;20032;-63
2021/07/22 10:16:22;;;;;;;10.63;6.78;;;;;;;26.44;41.69;102468.97;5070535;28;20191;-64
2021/07/22 10:18:50;;;;;;;12.43;6.03;;;;;;;26.75;41.53;102474.47;5066318;28;20098;-64
2021/07/22 10:21:15;;;;;;;10.75;5.88;;;;;;;27.44;38.84;102472.88;5073784;28;20415;-63
2021/07/22 10:23:42;;;;;;;8.95;5.95;;;;;;;26.51;40.64;102485.63;5068133;28;20032;-63
2021/07/22 10:26:08;;;;;;;11.90;5.93;;;;;;;25.26;42.74;102483.34;5066216;28;20104;-63
2021/07/22 10:28:34;;;;;;;11.02;5.88;;;;;;;25.45;42.68;102471.88;5072638;28;20491;-63
2021/07/22 10:31:03;;;;;;;10.88;6.00;;;;;;;26.26;41.78;102471.44;5071068;28;20112;-63
2021/07/22 10:33:30;;;;;;;9.35;6.10;;;;;;;27.51;38.42;102467.72;5071580;28;20016;-64
2021/07/22 10:35:56;;;;;;;7.93;5.32;;;;;;;27.98;37.65;102479.75;5071932;28;20039;-63
2021/07/22 10:38:23;;;;;;;7.53;4.68;;;;;;;28.96;34.82;102474.13;5072148;28;20376;-62
2021/07/22 10:40:57;;;;;;;7.75;5.15;;;;;;;28.85;34.97;102473.31;5074035;28;20108;-63
2021/07/22 10:43:46;;;;;;;9.95;5.07;;;;;;;29.40;36.27;102457.94;5064672;28;20498;-64
2021/07/22 10:46:21;;;;;;;7.00;5.07;;;;;;;28.85;35.15;102467.84;5072431;28;20477;-63
2021/07/22 10:48:48;;;;;;;9.50;5.63;;;;;;;26.91;37.40;102473.97;5072289;28;20470;-64
2021/07/22 10:51:19;;;;;;;8.55;5.40;;;;;;;25.91;39.37;102464.44;5071254;28;20040;-64
2021/07/22 10:53:52;;;;;;;8.00;5.22;;;;;;;25.60;39.66;102463.44;5071026;28;20016;-64
2021/07/22 10:56:23;;;;;;;9.02;5.25;;;;;;;26.25;39.14;102461.56;5070480;28;20032;-64
2021/07/22 10:58:48;;;;;;;;;;;;;;;26.72;37.34;102452.97;5073521;28;20024;-63
2021/07/22 11:01:13;;;;;;;10.10;5.73;;;;;;;27.28;37.31;102450.75;5072022;28;19916;-63
2021/07/22 11:03:43;;;;;;;8.07;5.88;;;;;;;28.11;38.78;102453.97;5072338;28;20291;-63
2021/07/22 11:06:10;;;;;;;8.18;5.75;;;;;;;28.99;34.59;102441.09;5071658;28;20505;-63
2021/07/22 11:08:37;;;;;;;10.60;5.47;;;;;;;28.59;34.49;102443.09;5071140;28;20024;-64
2021/07/22 11:11:03;;;;;;;9.07;5.60;;;;;;;27.23;36.67;102447.59;5072062;28;20252;-65
2021/07/22 11:13:34;;;;;;;11.60;6.55;;;;;;;26.94;38.62;102441.06;5072102;28;20021;-63
2021/07/22 11:16:02;;;;;;;10.20;5.57;;;;;;;27.20;38.16;102439.69;5064584;28;20060;-64
2021/07/22 11:18:39;;;;;;;10.20;5.55;;;;;;;26.93;38.62;102447.50;5072547;28;20021;-64
2021/07/22 11:21:06;;;;;;;8.05;5.60;;;;;;;25.79;41.37;102444.66;5072302;28;20033;-63
2021/07/22 11:23:31;;;;;;;8.48;5.40;;;;;;;25.40;43.08;102441.56;5072694;28;20043;-64
2021/07/22 11:25:57;;;;;;;11.65;5.82;;;;;;;25.62;41.91;102442.50;5072358;28;20373;-62
2021/07/22 11:28:24;;;;;;;9.45;5.60;;;;;;;25.90;41.10;102445.59;5070785;28;20392;-63
2021/07/22 11:31:03;;;;;;;10.93;6.10;;;;;;;26.30;39.50;102439.44;5072543;28;20384;-63
2021/07/22 11:33:35;;;;;;;8.80;5.38;;;;;;;26.78;39.64;102430.72;5051221;28;20492;-63
2021/07/22 11:36:08;;;;;;;9.20;5.18;;;;;;;27.89;38.17;102427.91;5065169;28;20054;-63
2021/07/22 11:38:35;;;;;;;9.00;4.90;;;;;;;27.31;39.04;102421.38;5071492;28;20029;-63
2021/07/22 11:41:01;;;;;;;12.27;5.63;;;;;;;26.74;39.96;102437.44;5071957;28;20481;-63
2021/07/22 11:43:37;;;;;;;9.50;5.05;;;;;;;26.49;41.10;102428.69;5071620;28;20099;-63
2021/07/22 11:46:05;;;;;;;10.40;5.50;;;;;;;26.95;39.71;102431.91;5070961;28;20036;-63
2021/07/22 11:48:30;;;;;;;8.55;5.50;;;;;;;26.87;39.86;102429.03;5069705;28;20103;-64
2021/07/22 11:51:04;;;;;;;7.90;4.90;;;;;;;27.05;40.55;102431.94;5071298;28;20120;-63
2021/07/22 11:53:30;;;;;;;8.63;5.35;;;;;;;27.44;38.66;102423.03;5071660;28;20021;-64
2021/07/22 11:56:07;;;;;;;8.65;5.60;;;;;;;27.36;38.59;102420.13;5071909;28;20108;-64
2021/07/22 11:58:32;;;;;;;9.82;5.57;;;;;;;27.61;39.70;102421.44;5069460;28;20500;-65
2021/07/22 12:01:01;;;;;;;9.13;4.65;;;;;;;28.51;36.12;102427.50;5071414;28;20055;-64
2021/07/22 12:03:26;;;;;;;8.82;5.32;;;;;;;28.34;36.99;102426.41;5072999;28;20055;-65
2021/07/22 12:05:52;;;;;;;10.15;5.53;;;;;;;27.89;37.02;102410.69;5071239;28;20559;-64
2021/07/22 12:08:19;;;;;;;9.55;5.80;;;;;;;27.05;38.73;102421.06;5070197;28;20222;-65
2021/07/22 12:10:46;;;;;;;8.38;5.00;;;;;;;27.83;38.80;102428.47;5070124;28;20052;-64
2021/07/22 12:13:12;;;;;;;8.85;5.00;;;;;;;28.65;36.69;102423.44;5070783;28;20028;-64
2021/07/22 12:15:39;;;;;;;8.93;5.32;;;;;;;28.49;36.38;102420.47;5070881;28;20052;-64
2021/07/22 12:18:05;;;;;;;6.82;4.40;;;;;;;28.57;37.02;102416.00;5071745;28;20028;-64
2021/07/22 12:20:33;;;;;;;7.53;4.75;;;;;;;28.84;36.07;102416.19;5063954;28;20033;-63
2021/07/22 12:22:58;;;;;;;10.48;4.68;;;;;;;28.50;37.25;102420.31;5050958;28;20454;-65
2021/07/22 12:25:26;;;;;;;9.93;5.13;;;;;;;28.44;36.49;102418.19;5054638;28;20035;-64
2021/07/22 12:27:53;;;;;;;8.18;4.72;;;;;;;29.02;36.38;102417.09;5067763;28;20167;-64
2021/07/22 12:30:23;;;;;;;10.18;4.60;;;;;;;28.99;34.94;102411.09;5072083;28;20116;-65
2021/07/22 12:32:51;;;;;;;6.32;4.20;;;;;;;29.38;35.67;102399.94;5071897;28;20028;-64
2021/07/22 12:35:40;;;;;;;7.55;4.38;;;;;;;28.71;35.54;102402.91;5072015;28;20425;-64
2021/07/22 12:38:08;;;;;;;7.57;5.00;;;;;;;27.71;37.75;102399.69;5070206;28;20024;-64
2021/07/22 12:40:43;;;;;;;8.75;5.30;;;;;;;27.48;38.16;102405.41;5071434;28;20024;-65
2021/07/22 12:43:14;;;;;;;10.75;5.30;;;;;;;27.62;38.91;102401.41;5072566;28;20032;-64
2021/07/22 12:45:42;;;;;;;11.48;4.43;;;;;;;27.93;37.57;102407.53;5071804;28;20059;-64
2021/07/22 12:48:08;;;;;;;8.32;4.50;;;;;;;27.68;38.61;102406.28;5071309;28;20446;-64